createdAt,value
2023-05-24T00:02:27.254Z,11.70
2023-05-24T00:05:12.794Z,11.80
2023-05-24T00:07:59.272Z,11.70
2023-05-24T00:10:44.992Z,11.70
2023-05-24T00:13:30.575Z,11.70
2023-05-24T00:16:16.068Z,11.50
2023-05-24T00:19:02.230Z,11.60
2023-05-24T00:21:48.834Z,11.80
2023-05-24T00:24:34.352Z,11.70
2023-05-24T00:27:20.119Z,11.80
2023-05-24T00:30:06.251Z,11.50
2023-05-24T00:32:51.934Z,11.60
2023-05-24T00:35:37.520Z,11.70
2023-05-24T00:38:23.891Z,11.80
2023-05-24T00:41:11.796Z,11.70
2023-05-24T00:43:57.327Z,11.80
2023-05-24T00:46:43.248Z,11.50
2023-05-24T00:49:29.236Z,11.40
2023-05-24T00:52:14.590Z,11.30
2023-05-24T00:55:00.118Z,11.30
2023-05-24T00:57:45.975Z,13.70
2023-05-24T01:00:32.316Z,11.30
2023-05-24T01:03:19.378Z,11.20
2023-05-24T01:06:07.473Z,11.40
2023-05-24T01:08:59.317Z,11.60
2023-05-24T01:11:57.236Z,11.70
2023-05-24T01:15:01.718Z,11.60
2023-05-24T01:17:54.070Z,11.90
2023-05-24T01:20:41.084Z,11.80
2023-05-24T01:23:41.974Z,11.80
2023-05-24T01:26:46.567Z,11.90
2023-05-24T01:29:32.722Z,11.40
2023-05-24T01:32:19.038Z,11.40
2023-05-24T01:35:05.142Z,11.50
2023-05-24T01:37:50.448Z,11.30
2023-05-24T01:40:37.059Z,11.40
2023-05-24T01:43:28.870Z,11.30
2023-05-24T01:46:36.070Z,11.30
2023-05-24T01:49:23.314Z,11.20
2023-05-24T01:52:12.279Z,11.40
2023-05-24T01:54:58.144Z,11.50
2023-05-24T01:57:44.958Z,11.60
2023-05-24T02:00:31.337Z,11.60
2023-05-24T02:03:16.893Z,8.80
2023-05-24T02:06:02.908Z,11.40
2023-05-24T02:08:48.337Z,11.30
2023-05-24T02:11:34.286Z,11.30
2023-05-24T02:14:20.570Z,11.20
2023-05-24T02:19:51.376Z,11.10
2023-05-24T02:22:36.951Z,11.20
2023-05-24T02:25:22.839Z,11.10
2023-05-24T02:28:08.710Z,11.30
2023-05-24T02:30:54.432Z,11.20
2023-05-24T02:33:40.604Z,11.20
2023-05-24T02:36:25.974Z,11.10
2023-05-24T02:39:11.647Z,11.00
2023-05-24T02:41:57.338Z,11.10
2023-05-24T02:44:43.139Z,11.10
2023-05-24T02:47:28.789Z,11.00
2023-05-24T02:50:14.375Z,11.00
2023-05-24T02:52:59.993Z,11.10
2023-05-24T02:55:46.757Z,11.30
2023-05-24T02:58:32.617Z,11.30
2023-05-24T03:01:18.345Z,11.50
2023-05-24T03:04:04.678Z,11.60
2023-05-24T03:06:50.037Z,11.70
2023-05-24T03:09:35.703Z,11.30
2023-05-24T03:12:21.151Z,11.40
2023-05-24T03:15:07.393Z,11.20
2023-05-24T03:17:53.121Z,11.40
2023-05-24T03:20:38.775Z,11.30
2023-05-24T03:23:25.856Z,11.40
2023-05-24T03:26:13.271Z,11.40
2023-05-24T03:28:58.664Z,11.30
2023-05-24T03:31:51.662Z,11.30
2023-05-24T03:34:37.443Z,11.50
2023-05-24T03:37:23.038Z,11.40
2023-05-24T03:40:08.961Z,11.40
2023-05-24T03:43:13.209Z,11.40
2023-05-24T03:46:06.633Z,11.20
2023-05-24T03:48:52.198Z,11.40
2023-05-24T03:51:37.763Z,11.20
2023-05-24T03:54:23.511Z,11.30
2023-05-24T03:57:08.973Z,11.30
2023-05-24T03:59:54.690Z,11.20
2023-05-24T04:02:41.487Z,11.40
2023-05-24T04:05:29.758Z,11.30
2023-05-24T04:08:15.199Z,11.40
2023-05-24T04:11:00.857Z,11.50
2023-05-24T04:13:46.520Z,11.40
2023-05-24T04:16:34.322Z,11.60
2023-05-24T04:19:25.894Z,11.50
2023-05-24T04:22:11.829Z,11.30
2023-05-24T04:24:57.149Z,11.50
2023-05-24T04:27:43.040Z,11.40
2023-05-24T04:30:30.180Z,11.40
2023-05-24T04:33:16.948Z,11.40
2023-05-24T04:36:03.478Z,11.40
2023-05-24T04:38:48.997Z,11.40
2023-05-24T04:41:38.869Z,11.60
2023-05-24T04:44:24.373Z,11.70
2023-05-24T04:47:10.789Z,11.80
2023-05-24T04:49:56.097Z,11.70
2023-05-24T04:52:41.983Z,11.80
2023-05-24T04:55:27.280Z,11.90
2023-05-24T04:58:13.059Z,11.90
2023-05-24T05:00:58.525Z,11.90
2023-05-24T05:03:46.009Z,11.90
2023-05-24T05:06:34.131Z,11.90
2023-05-24T05:09:19.685Z,12.00
2023-05-24T05:12:05.175Z,12.20
2023-05-24T05:14:50.805Z,12.20
2023-05-24T05:17:36.467Z,12.00
2023-05-24T05:20:22.740Z,12.20
2023-05-24T05:23:07.932Z,12.20
2023-05-24T05:25:53.492Z,12.10
2023-05-24T05:28:39.382Z,12.30
2023-05-24T05:31:24.958Z,12.30
2023-05-24T05:34:10.970Z,12.50
2023-05-24T05:36:56.418Z,12.40
2023-05-24T05:39:42.136Z,12.40
2023-05-24T05:42:27.746Z,12.60
2023-05-24T05:45:13.351Z,12.80
2023-05-24T05:47:58.977Z,12.70
2023-05-24T05:50:44.654Z,12.80
2023-05-24T05:53:30.356Z,12.70
2023-05-24T05:56:16.251Z,12.80
2023-05-24T05:59:01.608Z,12.70
2023-05-24T06:01:49.011Z,12.90
2023-05-24T06:04:34.557Z,12.80
2023-05-24T06:07:20.470Z,12.90
2023-05-24T06:10:06.356Z,13.00
2023-05-24T06:12:52.005Z,13.00
2023-05-24T06:15:38.083Z,13.20
2023-05-24T06:18:23.768Z,13.10
2023-05-24T06:21:10.729Z,13.30
2023-05-24T06:23:58.257Z,13.30
2023-05-24T06:26:43.644Z,13.20
2023-05-24T06:29:29.364Z,13.20
2023-05-24T06:32:14.942Z,13.10
2023-05-24T06:35:00.903Z,14.30
2023-05-24T06:37:46.887Z,13.30
2023-05-24T06:40:32.673Z,13.40
2023-05-24T06:43:18.187Z,13.20
2023-05-24T06:46:03.925Z,13.30
2023-05-24T06:48:49.830Z,13.40
2023-05-24T06:51:35.235Z,13.60
2023-05-24T06:54:21.613Z,13.60
2023-05-24T06:57:06.969Z,13.60
2023-05-24T06:59:52.730Z,13.70
2023-05-24T07:02:39.009Z,13.60
2023-05-24T07:05:24.564Z,13.80
2023-05-24T07:08:10.792Z,13.80
2023-05-24T07:10:57.013Z,13.70
2023-05-24T07:13:42.352Z,13.90
2023-05-24T07:16:28.096Z,14.10
2023-05-24T07:19:13.748Z,14.00
2023-05-24T07:21:59.445Z,14.30
2023-05-24T07:24:45.101Z,14.30
2023-05-24T07:27:30.553Z,14.30
2023-05-24T07:30:30.955Z,14.40
2023-05-24T07:33:17.418Z,14.40
2023-05-24T07:36:03.137Z,14.70
2023-05-24T07:38:48.849Z,14.70
2023-05-24T07:41:34.205Z,14.60
2023-05-24T07:44:19.981Z,14.80
2023-05-24T07:47:05.275Z,15.00
2023-05-24T07:49:50.865Z,15.00
2023-05-24T07:52:36.863Z,15.10
2023-05-24T07:55:22.264Z,15.10
2023-05-24T07:58:08.002Z,15.20
2023-05-24T08:00:54.092Z,15.10
2023-05-24T08:03:39.562Z,15.10
2023-05-24T08:06:25.291Z,15.20
2023-05-24T08:09:10.671Z,15.20
2023-05-24T08:11:57.104Z,15.30
2023-05-24T08:14:42.687Z,15.50
2023-05-24T08:17:28.450Z,15.60
2023-05-24T08:20:14.678Z,15.60
2023-05-24T08:23:00.463Z,15.60
2023-05-24T08:25:46.290Z,15.60
2023-05-24T08:28:32.201Z,15.50
2023-05-24T08:31:18.033Z,15.60
2023-05-24T08:34:05.114Z,15.70
2023-05-24T08:36:50.355Z,15.60
2023-05-24T08:39:36.268Z,15.50
2023-05-24T08:42:23.042Z,15.30
2023-05-24T08:45:10.711Z,15.30
2023-05-24T08:47:56.956Z,15.10
2023-05-24T08:50:42.465Z,15.20
2023-05-24T08:53:27.953Z,15.30
2023-05-24T08:56:13.466Z,15.40
2023-05-24T08:58:59.093Z,15.40
2023-05-24T09:01:47.392Z,15.40
2023-05-24T09:04:33.786Z,15.50
2023-05-24T09:07:23.627Z,15.30
2023-05-24T09:10:09.920Z,15.30
2023-05-24T09:12:57.559Z,15.40
2023-05-24T09:15:43.270Z,15.40
2023-05-24T09:18:29.330Z,15.40
2023-05-24T09:21:14.937Z,15.50
2023-05-24T09:24:00.377Z,15.30
2023-05-24T09:26:48.702Z,15.40
2023-05-24T09:29:41.480Z,15.40
2023-05-24T09:32:28.675Z,15.30
2023-05-24T09:35:14.257Z,15.30
2023-05-24T09:38:00.454Z,15.10
2023-05-24T09:40:45.952Z,15.20
2023-05-24T09:43:31.850Z,15.30
2023-05-24T09:46:18.959Z,15.10
2023-05-24T09:49:06.607Z,15.20
2023-05-24T09:51:52.400Z,15.20
2023-05-24T09:54:38.371Z,15.20
2023-05-24T09:57:25.902Z,15.30
2023-05-24T10:00:18.055Z,15.20
2023-05-24T10:03:04.912Z,15.10
2023-05-24T10:05:51.460Z,15.20
2023-05-24T10:08:37.464Z,15.20
2023-05-24T10:11:23.105Z,15.10
2023-05-24T10:14:09.667Z,15.30
2023-05-24T10:16:55.840Z,15.30
2023-05-24T10:19:42.011Z,15.20
2023-05-24T10:22:28.058Z,15.40
2023-05-24T10:25:26.015Z,15.40
2023-05-24T10:28:12.907Z,15.30
2023-05-24T10:31:01.903Z,15.20
2023-05-24T10:33:48.922Z,15.40
2023-05-24T10:36:34.984Z,15.30
2023-05-24T10:39:22.422Z,15.40
2023-05-24T10:42:09.750Z,15.30
2023-05-24T10:44:56.612Z,15.30
2023-05-24T10:47:42.300Z,15.40
2023-05-24T10:50:28.503Z,15.40
2023-05-24T10:53:17.650Z,15.40
2023-05-24T10:56:06.876Z,15.40
2023-05-24T10:58:55.369Z,15.30
2023-05-24T11:01:41.211Z,15.30
2023-05-24T11:04:29.408Z,15.20
2023-05-24T11:07:15.616Z,15.10
2023-05-24T11:10:07.105Z,15.00
2023-05-24T11:12:57.745Z,15.00
2023-05-24T11:15:49.944Z,15.00
2023-05-24T11:18:38.652Z,15.00
2023-05-24T11:21:24.303Z,15.00
2023-05-24T11:24:09.878Z,15.00
2023-05-24T11:26:57.150Z,15.10
2023-05-24T11:29:43.374Z,15.10
2023-05-24T11:32:29.310Z,15.40
2023-05-24T11:35:16.045Z,15.60
2023-05-24T11:38:02.754Z,15.70
2023-05-24T11:40:49.524Z,15.80
2023-05-24T11:43:34.961Z,16.00
2023-05-24T11:46:20.506Z,16.00
2023-05-24T11:49:07.053Z,16.10
2023-05-24T11:51:54.690Z,16.10
2023-05-24T11:54:40.004Z,16.20
2023-05-24T11:57:29.619Z,16.30
2023-05-24T12:00:24.292Z,16.30
2023-05-24T12:03:10.590Z,16.30
2023-05-24T12:05:57.290Z,16.20
2023-05-24T12:08:42.911Z,16.30
2023-05-24T12:11:28.497Z,16.20
2023-05-24T12:14:14.578Z,16.20
2023-05-24T12:17:03.320Z,16.10
2023-05-24T12:19:50.804Z,16.10
2023-05-24T12:22:36.019Z,16.20
2023-05-24T12:25:22.838Z,16.20
2023-05-24T12:28:08.413Z,16.20
2023-05-24T12:30:54.123Z,16.30
2023-05-24T12:33:39.880Z,16.30
2023-05-24T12:36:25.654Z,16.30
2023-05-24T12:39:18.688Z,16.30
2023-05-24T12:42:04.445Z,16.30
2023-05-24T12:44:52.501Z,16.40
2023-05-24T12:47:38.231Z,16.30
2023-05-24T12:50:25.146Z,16.30
2023-05-24T12:53:10.550Z,16.20
2023-05-24T12:55:56.486Z,16.20
2023-05-24T12:58:42.228Z,16.30
2023-05-24T13:01:28.032Z,16.20
2023-05-24T13:04:13.613Z,16.10
2023-05-24T13:06:59.001Z,16.00
2023-05-24T13:09:44.570Z,16.00
2023-05-24T13:12:30.393Z,16.00
2023-05-24T13:15:15.938Z,16.00
2023-05-24T13:18:01.601Z,15.90
2023-05-24T13:20:47.326Z,16.00
2023-05-24T13:23:33.861Z,16.00
2023-05-24T13:26:19.201Z,16.10
2023-05-24T13:31:54.086Z,16.30
2023-05-24T13:34:40.290Z,16.40
2023-05-24T13:37:25.710Z,16.30
2023-05-24T13:40:11.179Z,16.40
2023-05-24T13:42:57.176Z,16.50
2023-05-24T13:45:42.583Z,16.30
2023-05-24T13:48:28.265Z,16.20
2023-05-24T13:51:13.641Z,16.20
2023-05-24T13:53:59.667Z,16.10
2023-05-24T13:56:45.411Z,16.00
2023-05-24T13:59:31.118Z,15.90
2023-05-24T14:02:17.029Z,16.00
2023-05-24T14:05:17.894Z,16.00
2023-05-24T14:08:07.816Z,15.90
2023-05-24T14:10:53.744Z,15.90
2023-05-24T14:16:27.488Z,15.90
2023-05-24T14:19:13.082Z,15.80
2023-05-24T14:21:58.826Z,15.80
2023-05-24T14:24:44.536Z,15.80
2023-05-24T14:27:30.732Z,15.90
2023-05-24T14:30:16.677Z,16.00
2023-05-24T14:33:02.546Z,16.10
2023-05-24T14:35:48.246Z,16.20
2023-05-24T14:38:33.519Z,16.20
2023-05-24T14:41:19.222Z,16.30
2023-05-24T14:44:04.886Z,16.30
2023-05-24T14:46:52.484Z,16.30
2023-05-24T14:49:39.650Z,16.30
2023-05-24T14:52:25.411Z,16.20
2023-05-24T14:55:11.260Z,16.30
2023-05-24T14:57:57.578Z,16.40
2023-05-24T15:00:43.781Z,16.50
2023-05-24T15:03:29.841Z,16.50
2023-05-24T15:06:15.312Z,16.40
2023-05-24T15:09:01.421Z,16.40
2023-05-24T15:11:46.882Z,16.50
2023-05-24T15:14:32.356Z,16.60
2023-05-24T15:17:20.951Z,16.60
2023-05-24T15:20:07.415Z,16.50
2023-05-24T15:22:53.023Z,16.50
2023-05-24T15:25:38.758Z,16.30
2023-05-24T15:28:26.391Z,16.20
2023-05-24T15:31:12.498Z,16.10
2023-05-24T15:33:57.750Z,16.10
2023-05-24T15:36:45.061Z,16.00
2023-05-24T15:39:30.610Z,16.00
2023-05-24T15:42:16.400Z,15.90
2023-05-24T15:45:02.588Z,15.80
2023-05-24T15:47:48.211Z,15.80
2023-05-24T15:50:54.107Z,15.90
2023-05-24T15:53:39.294Z,16.00
2023-05-24T15:56:24.690Z,16.00
2023-05-24T15:59:10.375Z,16.10
2023-05-24T16:01:56.981Z,16.20
2023-05-24T16:04:42.630Z,16.30
2023-05-24T16:07:28.288Z,16.40
2023-05-24T16:10:18.170Z,16.60
2023-05-24T16:13:03.837Z,16.60
2023-05-24T16:15:52.486Z,16.60
2023-05-24T16:18:38.254Z,16.60
2023-05-24T16:21:24.473Z,16.60
2023-05-24T16:24:09.855Z,16.70
2023-05-24T16:26:56.870Z,16.70
2023-05-24T16:29:42.867Z,16.70
2023-05-24T16:32:28.179Z,16.70
2023-05-24T16:35:13.826Z,16.70
2023-05-24T16:37:59.562Z,16.80
2023-05-24T16:40:45.105Z,16.80
2023-05-24T16:43:30.717Z,16.90
2023-05-24T16:46:16.472Z,16.80
2023-05-24T16:49:03.385Z,16.80
2023-05-24T16:51:49.615Z,16.80
2023-05-24T16:54:35.034Z,16.70
2023-05-24T16:57:20.616Z,16.70
2023-05-24T17:00:06.714Z,16.70
2023-05-24T17:02:52.630Z,16.80
2023-05-24T17:05:38.579Z,16.80
2023-05-24T17:08:25.877Z,16.80
2023-05-24T17:11:11.816Z,16.80
2023-05-24T17:13:57.404Z,16.80
2023-05-24T17:16:43.691Z,16.90
2023-05-24T17:19:29.229Z,16.90
2023-05-24T17:22:14.949Z,16.90
2023-05-24T17:25:00.528Z,16.90
2023-05-24T17:27:45.866Z,16.90
2023-05-24T17:30:33.430Z,16.90
2023-05-24T17:33:19.289Z,16.90
2023-05-24T17:36:06.302Z,16.80
2023-05-24T17:38:51.987Z,16.80
2023-05-24T17:41:37.646Z,16.90
2023-05-24T17:44:23.325Z,16.80
2023-05-24T17:47:09.092Z,16.70
2023-05-24T17:49:54.704Z,16.70
2023-05-24T17:52:40.411Z,16.80
2023-05-24T17:55:26.601Z,16.70
2023-05-24T17:58:12.379Z,16.70
2023-05-24T18:00:57.905Z,16.60
2023-05-24T18:03:43.314Z,16.60
2023-05-24T18:06:29.036Z,16.60
2023-05-24T18:09:16.178Z,16.60
2023-05-24T18:12:01.854Z,16.50
2023-05-24T18:14:47.862Z,16.50
2023-05-24T18:17:33.494Z,16.50
2023-05-24T18:20:18.985Z,16.50
2023-05-24T18:23:04.585Z,16.50
2023-05-24T18:25:50.184Z,16.40
2023-05-24T18:28:45.825Z,16.40
2023-05-24T18:31:31.609Z,16.40
2023-05-24T18:34:17.161Z,16.40
2023-05-24T18:37:02.531Z,16.40
2023-05-24T18:39:48.209Z,16.40
2023-05-24T18:42:33.926Z,16.40
2023-05-24T18:45:19.733Z,16.40
2023-05-24T18:48:06.221Z,16.30
2023-05-24T18:50:52.107Z,14.20
2023-05-24T18:53:37.821Z,16.40
2023-05-24T18:56:24.319Z,16.20
2023-05-24T18:59:12.246Z,16.20
2023-05-24T19:01:59.188Z,16.20
2023-05-24T19:04:48.156Z,16.20
2023-05-24T19:07:34.315Z,16.10
2023-05-24T19:10:19.949Z,16.10
2023-05-24T19:13:06.268Z,16.00
2023-05-24T19:15:53.610Z,16.00
2023-05-24T19:18:39.352Z,16.00
2023-05-24T19:21:25.564Z,16.00
2023-05-24T19:24:11.205Z,15.90
2023-05-24T19:26:57.163Z,15.90
2023-05-24T19:29:42.722Z,16.00
2023-05-24T19:32:28.383Z,16.00
2023-05-24T19:35:14.001Z,16.00
2023-05-24T19:37:59.582Z,15.90
2023-05-24T19:40:46.013Z,15.80
2023-05-24T19:43:31.549Z,15.80
2023-05-24T19:46:17.031Z,15.70
2023-05-24T19:49:02.727Z,15.70
2023-05-24T19:51:48.329Z,15.70
2023-05-24T19:54:33.982Z,15.60
2023-05-24T19:57:19.923Z,15.50
2023-05-24T20:00:06.417Z,15.50
2023-05-24T20:02:56.570Z,15.50
2023-05-24T20:05:42.599Z,15.50
2023-05-24T20:08:28.335Z,15.50
2023-05-24T20:11:14.413Z,15.60
2023-05-24T20:14:00.411Z,15.50
2023-05-24T20:16:45.986Z,15.50
2023-05-24T20:19:31.308Z,15.50
2023-05-24T20:22:17.351Z,15.50
2023-05-24T20:25:03.433Z,15.50
2023-05-24T20:27:49.151Z,15.40
2023-05-24T20:30:34.800Z,15.30
2023-05-24T20:33:20.606Z,15.30
2023-05-24T20:36:06.705Z,15.30
2023-05-24T20:38:52.018Z,15.20
2023-05-24T20:41:37.750Z,15.20
2023-05-24T20:44:23.458Z,15.20
2023-05-24T20:47:09.067Z,15.20
2023-05-24T20:49:54.796Z,15.10
2023-05-24T20:52:40.618Z,15.10
2023-05-24T20:55:27.157Z,15.10
2023-05-24T20:58:12.765Z,15.10
2023-05-24T21:00:58.286Z,15.10
2023-05-24T21:03:44.551Z,15.00
2023-05-24T21:06:32.031Z,15.00
2023-05-24T21:09:19.183Z,14.80
2023-05-24T21:12:05.068Z,15.00
2023-05-24T21:14:56.681Z,15.10
2023-05-24T21:17:42.391Z,15.10
2023-05-24T21:20:28.027Z,15.00
2023-05-24T21:23:13.314Z,14.90
2023-05-24T21:25:59.010Z,14.90
2023-05-24T21:28:44.975Z,14.90
2023-05-24T21:31:31.961Z,15.00
2023-05-24T21:34:17.321Z,14.90
2023-05-24T21:37:03.121Z,14.90
2023-05-24T21:39:49.425Z,14.90
2023-05-24T21:42:35.121Z,14.90
2023-05-24T21:45:20.546Z,14.90
2023-05-24T21:48:06.424Z,14.80
2023-05-24T21:50:55.328Z,14.90
2023-05-24T21:53:41.754Z,14.80
2023-05-24T21:56:27.104Z,14.70
2023-05-24T21:59:13.021Z,14.70
2023-05-24T22:01:58.418Z,14.60
2023-05-24T22:04:44.101Z,14.60
2023-05-24T22:07:29.740Z,14.40
2023-05-24T22:10:15.541Z,14.40
2023-05-24T22:13:01.379Z,14.40
2023-05-24T22:15:46.819Z,14.30
2023-05-24T22:18:32.453Z,14.40
2023-05-24T22:21:18.655Z,14.50
2023-05-24T22:24:04.436Z,14.50
2023-05-24T22:26:50.038Z,14.50
2023-05-24T22:29:35.909Z,14.50
2023-05-24T22:32:21.771Z,14.50
2023-05-24T22:35:07.215Z,14.40
2023-05-24T22:37:52.620Z,14.40
2023-05-24T22:40:41.713Z,14.40
2023-05-24T22:43:27.981Z,14.20
2023-05-24T22:46:13.264Z,14.30
2023-05-24T22:49:03.037Z,14.30
2023-05-24T22:51:50.655Z,14.20
2023-05-24T22:54:36.280Z,14.20
2023-05-24T22:57:22.853Z,14.10
2023-05-24T23:00:08.665Z,14.10
2023-05-24T23:02:54.413Z,14.10
2023-05-24T23:05:41.213Z,14.10
2023-05-24T23:08:26.691Z,14.10
2023-05-24T23:11:13.286Z,14.20
2023-05-24T23:13:59.627Z,14.10
2023-05-24T23:16:45.717Z,14.00
2023-05-24T23:19:31.382Z,13.90
2023-05-24T23:22:20.109Z,14.00
2023-05-24T23:25:06.389Z,14.00
2023-05-24T23:27:51.713Z,13.90
2023-05-24T23:30:37.551Z,13.70
2023-05-24T23:33:23.115Z,13.80
2023-05-24T23:36:09.964Z,13.70
2023-05-24T23:38:55.642Z,13.70
2023-05-24T23:41:41.053Z,13.70
2023-05-24T23:44:26.741Z,13.70
2023-05-24T23:47:12.386Z,13.90
2023-05-24T23:49:57.851Z,13.80
2023-05-24T23:52:44.123Z,13.80
2023-05-24T23:55:29.391Z,13.70
2023-05-24T23:58:15.102Z,13.60
